Pocono Lake, Pennsylvania
Current Conditions -  °F | °C
As of 9:53 PM on Friday 24 Oct 2014 (Local Time) from KMPO Reporting Station
Clear Clear  
Wind Chill: 50°   Ceiling: Unl
Heat Index: 50°   Visibility: 10mi
Dew Point: 34°   Wind: 14mph
Humidity: 54%   Direction: 310°NW
Pressure: 29.88"   Gusts: NA
Location:  41.09°N, 75.58°W
Report Text: KMPO 250153Z AUTO 31012KT 10SM CLR 10/01 A2988 RMK AO2 SLP122 T01000011
Loading
Personal Weather Stations






























Interactive Weather Map New forecast layout! Learn more

10-Day Weather Forecast

Advertisements
Track Severe Weather on mobile